createdAt,value
2022-11-26T00:02:26.365Z,25.07
2022-11-26T00:04:54.630Z,26.00
2022-11-26T00:07:26.523Z,25.67
2022-11-26T00:09:55.136Z,25.03
2022-11-26T00:12:28.711Z,25.17
2022-11-26T00:14:55.778Z,25.83
2022-11-26T00:17:23.082Z,24.80
2022-11-26T00:19:49.826Z,22.90
2022-11-26T00:22:23.338Z,22.20
2022-11-26T00:24:50.453Z,22.83
2022-11-26T00:27:17.350Z,21.50
2022-11-26T00:29:44.143Z,21.17
2022-11-26T00:32:37.071Z,23.80
2022-11-26T00:35:03.893Z,23.00
2022-11-26T00:37:38.854Z,22.80
2022-11-26T00:40:06.460Z,21.47
2022-11-26T00:42:33.245Z,21.20
2022-11-26T00:44:59.924Z,20.97
2022-11-26T00:47:26.617Z,21.53
2022-11-26T00:49:53.700Z,21.90
2022-11-26T00:52:34.512Z,20.60
2022-11-26T00:55:06.448Z,21.87
2022-11-26T00:57:33.217Z,22.13
2022-11-26T01:00:00.330Z,22.67
2022-11-26T01:02:27.130Z,22.27
2022-11-26T01:04:54.388Z,24.07
2022-11-26T01:07:21.172Z,22.70
2022-11-26T01:09:48.498Z,24.60
2022-11-26T01:12:15.607Z,22.70
2022-11-26T01:14:42.698Z,23.80
2022-11-26T01:17:11.897Z,24.20
2022-11-26T01:19:38.569Z,25.43
2022-11-26T01:22:05.365Z,24.30
2022-11-26T01:24:32.172Z,24.17
2022-11-26T01:26:59.038Z,23.17
2022-11-26T01:29:25.769Z,23.50
2022-11-26T01:31:52.674Z,24.10
2022-11-26T01:34:19.432Z,23.53
2022-11-26T01:36:46.183Z,22.67
2022-11-26T01:39:19.639Z,24.27
2022-11-26T01:41:57.258Z,24.80
2022-11-26T01:44:30.694Z,24.93
2022-11-26T01:46:58.653Z,26.50
2022-11-26T01:49:30.489Z,26.30
2022-11-26T01:52:15.746Z,25.77
2022-11-26T01:54:44.291Z,26.63
2022-11-26T01:57:20.605Z,23.90
2022-11-26T01:59:52.849Z,26.30
2022-11-26T02:02:21.966Z,23.13
2022-11-26T02:05:09.556Z,24.10
2022-11-26T02:07:36.930Z,22.60
2022-11-26T02:10:04.824Z,23.00
2022-11-26T02:12:32.184Z,22.87
2022-11-26T02:14:59.035Z,22.50
2022-11-26T02:17:25.692Z,23.10
2022-11-26T02:20:29.714Z,23.20
2022-11-26T02:22:59.216Z,22.40
2022-11-26T02:25:44.735Z,22.80
2022-11-26T02:28:39.683Z,22.00
2022-11-26T02:31:16.048Z,20.90
2022-11-26T02:33:58.325Z,22.13
2022-11-26T02:36:46.925Z,21.23
2022-11-26T02:39:15.836Z,22.93
2022-11-26T02:41:45.091Z,21.70
2022-11-26T02:44:13.790Z,22.37
2022-11-26T02:46:41.816Z,23.80
2022-11-26T02:49:12.531Z,24.27
2022-11-26T02:51:40.859Z,24.93
2022-11-26T02:54:09.811Z,22.57
2022-11-26T02:56:37.887Z,23.10
2022-11-26T02:59:05.701Z,22.13
2022-11-26T03:01:46.799Z,22.57
2022-11-26T03:04:23.119Z,22.10
2022-11-26T03:06:51.651Z,22.23
2022-11-26T03:09:18.609Z,21.40
2022-11-26T03:11:45.387Z,20.67
2022-11-26T03:14:12.167Z,20.87
2022-11-26T03:16:38.948Z,20.93
2022-11-26T03:19:05.809Z,22.27
2022-11-26T03:21:33.541Z,21.53
2022-11-26T03:24:01.311Z,22.70
2022-11-26T03:26:28.019Z,21.93
2022-11-26T03:28:54.703Z,21.83
2022-11-26T03:31:21.538Z,23.20
2022-11-26T03:33:48.293Z,21.23
2022-11-26T03:36:15.017Z,23.53
2022-11-26T03:38:41.756Z,22.20
2022-11-26T03:41:08.424Z,22.60
2022-11-26T03:43:35.175Z,20.63
2022-11-26T03:46:01.961Z,21.97
2022-11-26T03:48:28.696Z,20.70
2022-11-26T03:50:55.449Z,21.03
2022-11-26T03:53:22.184Z,22.37
2022-11-26T03:55:49.332Z,22.50
2022-11-26T03:58:16.072Z,22.20
2022-11-26T04:00:42.842Z,22.50
2022-11-26T04:03:09.559Z,22.30
2022-11-26T04:05:36.350Z,20.60
2022-11-26T04:08:03.459Z,20.17
2022-11-26T04:10:30.231Z,19.07
2022-11-26T04:12:56.992Z,19.87
2022-11-26T04:15:23.926Z,19.30
2022-11-26T04:17:50.687Z,19.13
2022-11-26T04:20:17.570Z,20.00
2022-11-26T04:22:44.315Z,20.33
2022-11-26T04:25:11.110Z,20.93
2022-11-26T04:27:38.253Z,21.87
2022-11-26T04:30:07.839Z,21.37
2022-11-26T04:32:34.661Z,21.00
2022-11-26T04:35:01.356Z,19.17
2022-11-26T04:37:28.517Z,20.73
2022-11-26T04:39:55.260Z,20.27
2022-11-26T04:42:21.976Z,22.10
2022-11-26T04:44:48.637Z,19.80
2022-11-26T04:47:15.395Z,19.73
2022-11-26T04:49:42.137Z,20.30
2022-11-26T04:52:08.835Z,20.87
2022-11-26T04:54:35.806Z,21.10
2022-11-26T04:57:02.947Z,22.73
2022-11-26T04:59:29.617Z,23.73
2022-11-26T05:01:56.363Z,45.40
2022-11-26T05:04:23.087Z,20.80
2022-11-26T05:06:49.825Z,20.43
2022-11-26T05:09:16.540Z,21.00
2022-11-26T05:11:43.269Z,23.50
2022-11-26T05:14:10.015Z,22.50
2022-11-26T05:16:36.856Z,20.47
2022-11-26T05:19:03.831Z,20.47
2022-11-26T05:21:30.612Z,20.30
2022-11-26T05:23:57.317Z,18.97
2022-11-26T05:26:24.161Z,22.87
2022-11-26T05:28:50.977Z,22.80
2022-11-26T05:31:17.744Z,21.30
2022-11-26T05:33:44.536Z,20.87
2022-11-26T05:36:11.220Z,22.53
2022-11-26T05:38:37.925Z,22.47
2022-11-26T05:41:04.689Z,22.17
2022-11-26T05:43:31.477Z,22.30
2022-11-26T05:46:05.286Z,21.83
2022-11-26T05:48:32.150Z,21.57
2022-11-26T05:51:00.712Z,22.70
2022-11-26T05:53:28.161Z,23.17
2022-11-26T05:55:54.877Z,21.87
2022-11-26T05:58:21.544Z,21.77
2022-11-26T06:00:48.258Z,20.80
2022-11-26T06:03:19.795Z,21.03
2022-11-26T06:05:47.312Z,20.50
2022-11-26T06:08:14.040Z,21.57
2022-11-26T06:10:42.972Z,20.17
2022-11-26T06:13:10.178Z,22.43
2022-11-26T06:15:36.915Z,22.33
2022-11-26T06:18:03.797Z,20.90
2022-11-26T06:20:30.598Z,22.10
2022-11-26T06:22:57.321Z,22.97
2022-11-26T06:25:24.130Z,22.30
2022-11-26T06:27:52.148Z,21.70
2022-11-26T06:30:19.239Z,24.13
2022-11-26T06:32:45.957Z,23.57
2022-11-26T06:35:13.114Z,22.60
2022-11-26T06:37:40.261Z,23.73
2022-11-26T06:40:08.325Z,23.87
2022-11-26T06:42:35.085Z,22.30
2022-11-26T06:45:02.079Z,24.80
2022-11-26T06:47:28.830Z,25.60
2022-11-26T06:49:55.547Z,24.67
2022-11-26T06:52:22.258Z,25.10
2022-11-26T06:54:50.575Z,25.90
2022-11-26T06:57:17.319Z,25.40
2022-11-26T06:59:44.054Z,25.07
2022-11-26T07:02:11.426Z,28.10
2022-11-26T07:04:38.476Z,25.97
2022-11-26T07:07:05.428Z,26.63
2022-11-26T07:09:32.172Z,26.30
2022-11-26T07:11:58.971Z,25.27
2022-11-26T07:14:25.763Z,29.47
2022-11-26T07:16:52.608Z,28.50
2022-11-26T07:19:19.318Z,29.33
2022-11-26T07:21:46.072Z,27.90
2022-11-26T07:24:13.204Z,31.97
2022-11-26T07:26:39.959Z,28.43
2022-11-26T07:29:07.132Z,27.93
2022-11-26T07:31:34.237Z,30.40
2022-11-26T07:34:01.046Z,31.87
2022-11-26T07:36:29.891Z,30.87
2022-11-26T07:38:58.376Z,31.70
2022-11-26T07:41:26.701Z,30.70
2022-11-26T07:43:53.674Z,32.30
2022-11-26T07:46:23.574Z,33.23
2022-11-26T07:48:50.765Z,33.30
2022-11-26T07:51:23.600Z,32.93
2022-11-26T07:53:51.248Z,32.80
2022-11-26T07:56:18.817Z,31.30
2022-11-26T07:58:45.832Z,35.00
2022-11-26T08:01:15.862Z,34.43
2022-11-26T08:03:45.926Z,34.60
2022-11-26T08:06:16.458Z,34.17
2022-11-26T08:08:43.316Z,34.90
2022-11-26T08:11:24.239Z,35.13
2022-11-26T08:14:20.436Z,32.87
2022-11-26T08:16:47.246Z,34.80
2022-11-26T08:19:15.553Z,36.17
2022-11-26T08:21:42.524Z,39.00
2022-11-26T08:24:15.566Z,42.97
2022-11-26T08:26:44.473Z,42.03
2022-11-26T08:29:11.808Z,39.43
2022-11-26T08:31:45.134Z,39.33
2022-11-26T08:34:15.363Z,38.97
2022-11-26T08:36:42.497Z,42.80
2022-11-26T08:39:17.557Z,42.93
2022-11-26T08:41:50.278Z,40.10
2022-11-26T08:44:19.298Z,39.47
2022-11-26T08:46:46.098Z,41.20
2022-11-26T08:49:14.857Z,38.70
2022-11-26T08:51:42.221Z,38.63
2022-11-26T08:54:09.380Z,34.60
2022-11-26T08:56:36.483Z,37.07
2022-11-26T08:59:03.643Z,40.30
2022-11-26T09:01:32.734Z,37.10
2022-11-26T09:04:01.621Z,36.27
2022-11-26T09:06:30.116Z,39.70
2022-11-26T09:09:12.705Z,39.80
2022-11-26T09:11:48.512Z,44.37
2022-11-26T09:14:17.661Z,39.20
2022-11-26T09:16:45.004Z,36.23
2022-11-26T09:19:13.380Z,37.97
2022-11-26T09:21:40.500Z,36.77
2022-11-26T09:24:07.674Z,35.27
2022-11-26T09:26:34.968Z,37.27
2022-11-26T09:29:01.979Z,36.03
2022-11-26T09:31:28.869Z,36.37
2022-11-26T09:33:57.281Z,33.57
2022-11-26T09:36:24.183Z,34.27
2022-11-26T09:38:57.340Z,35.90
2022-11-26T09:41:42.631Z,31.60
2022-11-26T09:45:20.706Z,31.13
2022-11-26T09:47:52.068Z,32.70
2022-11-26T09:50:28.685Z,35.27
2022-11-26T09:53:13.243Z,37.33
2022-11-26T09:55:41.925Z,33.80
2022-11-26T09:58:45.404Z,35.27
2022-11-26T10:01:18.408Z,37.40
2022-11-26T10:03:45.318Z,32.83
2022-11-26T10:06:35.151Z,34.03
2022-11-26T10:09:04.971Z,36.80
2022-11-26T10:11:55.761Z,35.63
2022-11-26T10:14:51.258Z,34.17
2022-11-26T10:17:42.410Z,32.17
2022-11-26T10:20:37.572Z,33.60
2022-11-26T10:23:12.924Z,29.40
2022-11-26T10:26:04.770Z,30.73
2022-11-26T10:28:45.465Z,31.90
2022-11-26T10:31:23.336Z,30.10
2022-11-26T10:33:55.121Z,30.97
2022-11-26T10:36:44.458Z,27.50
2022-11-26T10:39:15.309Z,26.70
2022-11-26T10:41:42.652Z,25.43
2022-11-26T10:44:34.632Z,26.63
2022-11-26T10:47:23.751Z,25.97
2022-11-26T10:49:52.553Z,23.80
2022-11-26T10:52:24.784Z,21.57
2022-11-26T10:55:19.652Z,23.00
2022-11-26T10:57:55.106Z,22.83
2022-11-26T11:00:36.963Z,24.40
2022-11-26T11:03:44.991Z,22.43
2022-11-26T11:06:21.270Z,21.60
2022-11-26T11:08:50.102Z,23.10
2022-11-26T11:11:22.363Z,20.70
2022-11-26T11:13:49.575Z,21.37
2022-11-26T11:16:30.539Z,20.90
2022-11-26T11:19:00.475Z,20.10
2022-11-26T11:21:37.954Z,19.70
2022-11-26T11:24:13.805Z,21.33
2022-11-26T11:26:45.907Z,18.33
2022-11-26T11:29:42.291Z,19.50
2022-11-26T11:32:38.834Z,19.10
2022-11-26T11:35:23.984Z,18.97
2022-11-26T11:37:55.956Z,19.27
2022-11-26T11:40:27.489Z,19.70
2022-11-26T11:43:03.087Z,20.10
2022-11-26T11:45:42.743Z,19.70
2022-11-26T11:48:18.773Z,20.00
2022-11-26T11:50:57.867Z,22.07
2022-11-26T11:53:41.863Z,19.80
2022-11-26T11:56:44.022Z,20.93
2022-11-26T11:59:19.533Z,20.33
2022-11-26T12:01:57.163Z,23.50
2022-11-26T12:04:29.474Z,18.47
2022-11-26T12:07:14.259Z,24.37
2022-11-26T12:10:16.595Z,20.57
2022-11-26T12:12:50.716Z,18.37
2022-11-26T12:15:33.721Z,18.93
2022-11-26T12:18:14.534Z,22.63
2022-11-26T12:20:57.126Z,19.83
2022-11-26T12:23:43.808Z,17.00
2022-11-26T12:26:22.374Z,17.77
2022-11-26T12:29:06.903Z,16.40
2022-11-26T12:31:41.778Z,17.90
2022-11-26T12:34:12.972Z,19.90
2022-11-26T12:37:02.181Z,16.57
2022-11-26T12:39:53.893Z,20.00
2022-11-26T12:42:53.843Z,19.67
2022-11-26T12:45:35.785Z,16.83
2022-11-26T12:48:40.232Z,16.07
2022-11-26T12:51:06.934Z,17.30
2022-11-26T12:53:36.415Z,16.90
2022-11-26T12:56:21.419Z,17.00
2022-11-26T12:59:10.104Z,16.50
2022-11-26T13:01:37.031Z,17.30
2022-11-26T13:04:35.615Z,17.70
2022-11-26T13:07:10.359Z,18.03
2022-11-26T13:10:10.895Z,16.10
2022-11-26T13:13:02.530Z,17.03
2022-11-26T13:15:43.933Z,16.47
2022-11-26T13:18:24.136Z,16.97
2022-11-26T13:21:14.613Z,15.67
2022-11-26T13:24:25.990Z,15.80
2022-11-26T13:27:01.690Z,16.97
2022-11-26T13:29:56.622Z,18.97
2022-11-26T13:32:26.983Z,16.30
2022-11-26T13:35:21.047Z,16.87
2022-11-26T13:38:25.479Z,16.10
2022-11-26T13:41:10.971Z,16.40
2022-11-26T13:43:58.230Z,15.70
2022-11-26T13:46:33.158Z,14.67
2022-11-26T13:49:06.166Z,15.50
2022-11-26T13:51:35.702Z,14.13
2022-11-26T13:54:31.890Z,14.20
2022-11-26T13:57:05.980Z,14.13
2022-11-26T13:59:33.252Z,14.07
2022-11-26T14:02:36.453Z,15.10
2022-11-26T14:05:14.721Z,16.77
2022-11-26T14:07:42.841Z,13.20
2022-11-26T14:10:35.893Z,15.23
2022-11-26T14:13:02.760Z,16.90
2022-11-26T14:15:41.672Z,14.43
2022-11-26T14:18:13.498Z,16.53
2022-11-26T14:20:59.643Z,17.13
2022-11-26T14:23:44.450Z,16.40
2022-11-26T14:26:14.278Z,14.87
2022-11-26T14:28:41.174Z,14.40
2022-11-26T14:31:14.102Z,15.03
2022-11-26T14:33:45.132Z,15.27
2022-11-26T14:36:27.280Z,19.47
2022-11-26T14:39:05.580Z,15.93
2022-11-26T14:41:41.348Z,14.40
2022-11-26T14:44:11.796Z,15.83
2022-11-26T14:46:40.723Z,16.03
2022-11-26T14:49:34.720Z,15.40
2022-11-26T14:52:04.844Z,17.23
2022-11-26T14:54:38.584Z,15.13
2022-11-26T14:57:11.575Z,14.20
2022-11-26T14:59:55.518Z,16.63
2022-11-26T15:02:23.781Z,15.93
2022-11-26T15:05:02.285Z,14.97
2022-11-26T15:07:30.913Z,14.13
2022-11-26T15:10:23.940Z,15.17
2022-11-26T15:12:52.528Z,14.70
2022-11-26T15:15:21.718Z,16.70
2022-11-26T15:17:56.237Z,14.30
2022-11-26T15:20:23.604Z,13.30
2022-11-26T15:22:56.136Z,16.90
2022-11-26T15:25:39.832Z,14.27
2022-11-26T15:28:18.385Z,14.70
2022-11-26T15:31:00.766Z,14.47
2022-11-26T15:33:29.677Z,13.03
2022-11-26T15:35:57.315Z,14.30
2022-11-26T15:38:29.733Z,16.00
2022-11-26T15:41:19.056Z,16.53
2022-11-26T15:43:58.984Z,12.20
2022-11-26T15:46:32.753Z,11.73
2022-11-26T15:49:07.743Z,12.30
2022-11-26T15:51:42.476Z,10.57
2022-11-26T15:54:30.867Z,10.83
2022-11-26T15:57:10.265Z,9.90
2022-11-26T15:59:45.931Z,9.77
2022-11-26T16:02:26.084Z,10.63
2022-11-26T16:04:53.986Z,9.90
2022-11-26T16:07:23.726Z,12.03
2022-11-26T16:09:52.485Z,9.90
2022-11-26T16:12:31.313Z,8.57
2022-11-26T16:15:18.054Z,10.57
2022-11-26T16:17:45.836Z,8.80
2022-11-26T16:20:25.783Z,9.93
2022-11-26T16:22:56.784Z,9.57
2022-11-26T16:25:27.808Z,9.00
2022-11-26T16:28:06.997Z,11.67
2022-11-26T16:30:34.007Z,10.67
2022-11-26T16:33:00.828Z,10.40
2022-11-26T16:35:45.247Z,11.77
2022-11-26T16:38:24.653Z,16.70
2022-11-26T16:40:51.993Z,16.10
2022-11-26T16:43:19.167Z,12.53
2022-11-26T16:45:47.388Z,11.07
2022-11-26T16:48:32.851Z,10.47
2022-11-26T16:50:59.609Z,8.30
2022-11-26T16:53:26.294Z,8.77
2022-11-26T16:55:53.993Z,9.80
2022-11-26T16:58:28.977Z,9.77
2022-11-26T17:00:56.878Z,10.73
2022-11-26T17:03:24.681Z,11.17
2022-11-26T17:05:56.035Z,10.60
2022-11-26T17:08:23.122Z,9.33
2022-11-26T17:10:51.264Z,9.50
2022-11-26T17:13:18.659Z,10.40
2022-11-26T17:15:45.569Z,8.77
2022-11-26T17:18:23.778Z,8.70
2022-11-26T17:20:52.204Z,9.60
2022-11-26T17:23:19.225Z,8.67
2022-11-26T17:25:50.559Z,9.03
2022-11-26T17:28:17.373Z,9.53
2022-11-26T17:30:44.783Z,9.23
2022-11-26T17:33:11.636Z,9.13
2022-11-26T17:35:39.159Z,9.10
2022-11-26T17:38:15.076Z,8.67
2022-11-26T17:40:42.134Z,8.77
2022-11-26T17:43:09.255Z,8.03
2022-11-26T17:45:36.548Z,8.60
2022-11-26T17:48:03.662Z,8.37
2022-11-26T17:50:31.109Z,8.50
2022-11-26T17:52:57.926Z,8.47
2022-11-26T17:55:26.916Z,8.70
2022-11-26T17:57:55.166Z,9.37
2022-11-26T18:00:28.055Z,9.87
2022-11-26T18:02:55.253Z,12.20
2022-11-26T18:05:22.628Z,9.50
2022-11-26T18:07:50.115Z,11.47
2022-11-26T18:10:18.745Z,10.90
2022-11-26T18:12:45.884Z,8.00
2022-11-26T18:15:24.204Z,7.77
2022-11-26T18:17:52.978Z,7.57
2022-11-26T18:20:22.681Z,9.07
2022-11-26T18:22:54.892Z,9.10
2022-11-26T18:25:22.010Z,9.60
2022-11-26T18:27:48.917Z,8.97
2022-11-26T18:30:16.756Z,9.30
2022-11-26T18:32:43.714Z,8.23
2022-11-26T18:35:10.998Z,8.07
2022-11-26T18:37:39.447Z,8.83
2022-11-26T18:40:08.660Z,10.23
2022-11-26T18:42:37.783Z,10.17
2022-11-26T18:45:07.559Z,9.03
2022-11-26T18:47:34.349Z,11.10
2022-11-26T18:50:01.200Z,11.30
2022-11-26T18:52:27.881Z,22.10
2022-11-26T18:54:54.943Z,9.60
2022-11-26T18:57:21.760Z,10.40
2022-11-26T18:59:50.423Z,8.13
2022-11-26T19:02:17.485Z,7.57
2022-11-26T19:04:44.310Z,9.33
2022-11-26T19:07:12.916Z,13.03
2022-11-26T19:09:39.974Z,10.17
2022-11-26T19:12:07.077Z,10.47
2022-11-26T19:14:33.852Z,9.90
2022-11-26T19:17:00.745Z,8.50
2022-11-26T19:19:28.236Z,7.00
2022-11-26T19:22:00.892Z,7.20
2022-11-26T19:24:29.491Z,8.27
2022-11-26T19:26:56.480Z,6.67
2022-11-26T19:29:23.245Z,6.57
2022-11-26T19:31:50.146Z,6.90
2022-11-26T19:34:17.374Z,6.70
2022-11-26T19:36:48.365Z,6.60
2022-11-26T19:39:16.456Z,7.17
2022-11-26T19:41:43.300Z,7.07
2022-11-26T19:44:10.074Z,8.70
2022-11-26T19:46:40.989Z,7.40
2022-11-26T19:49:10.949Z,7.93
2022-11-26T19:51:37.733Z,7.90
2022-11-26T19:54:05.011Z,7.10
2022-11-26T19:56:32.405Z,7.50
2022-11-26T19:59:02.042Z,9.00
2022-11-26T20:01:31.057Z,7.27
2022-11-26T20:03:59.664Z,6.90
2022-11-26T20:06:27.818Z,7.17
2022-11-26T20:08:55.693Z,7.67
2022-11-26T20:11:23.159Z,6.60
2022-11-26T20:13:50.524Z,6.97
2022-11-26T20:16:23.921Z,7.73
2022-11-26T20:18:51.595Z,8.00
2022-11-26T20:21:21.077Z,7.73
2022-11-26T20:23:49.595Z,7.80
2022-11-26T20:26:43.384Z,7.57
2022-11-26T20:29:12.868Z,7.03
2022-11-26T20:31:45.775Z,6.40
2022-11-26T20:34:18.102Z,7.10
2022-11-26T20:36:45.024Z,8.27
2022-11-26T20:39:20.335Z,7.20
2022-11-26T20:41:47.250Z,7.33
2022-11-26T20:44:14.406Z,7.07
2022-11-26T20:46:41.915Z,7.20
2022-11-26T20:49:11.583Z,6.80
2022-11-26T20:51:38.735Z,6.80
2022-11-26T20:54:05.674Z,7.27
2022-11-26T20:56:33.155Z,6.60
2022-11-26T20:59:01.902Z,6.93
2022-11-26T21:01:30.213Z,7.90
2022-11-26T21:03:58.361Z,8.30
2022-11-26T21:06:30.464Z,7.70
2022-11-26T21:09:02.464Z,8.53
2022-11-26T21:11:29.900Z,8.20
2022-11-26T21:13:58.401Z,8.40
2022-11-26T21:16:25.608Z,7.93
2022-11-26T21:18:54.539Z,8.40
2022-11-26T21:21:21.874Z,8.50
2022-11-26T21:23:48.623Z,8.27
2022-11-26T21:26:17.926Z,7.70
2022-11-26T21:28:44.930Z,8.47
2022-11-26T21:31:14.767Z,9.53
2022-11-26T21:33:41.666Z,9.57
2022-11-26T21:36:10.673Z,9.57
2022-11-26T21:38:37.785Z,10.03
2022-11-26T21:41:06.728Z,9.53
2022-11-26T21:43:33.885Z,9.53
2022-11-26T21:46:05.046Z,10.20
2022-11-26T21:48:32.567Z,11.87
2022-11-26T21:50:59.668Z,12.23
2022-11-26T21:53:26.466Z,10.57
2022-11-26T21:55:53.230Z,9.57
2022-11-26T21:58:20.019Z,10.10
2022-11-26T22:00:46.793Z,10.70
2022-11-26T22:03:13.512Z,11.60
2022-11-26T22:05:41.750Z,13.27
2022-11-26T22:08:08.571Z,13.03
2022-11-26T22:10:36.270Z,13.10
2022-11-26T22:13:03.134Z,13.07
2022-11-26T22:15:29.915Z,11.87
2022-11-26T22:17:57.200Z,11.97
2022-11-26T22:20:24.041Z,11.00
2022-11-26T22:22:50.826Z,11.80
2022-11-26T22:25:17.610Z,12.20
2022-11-26T22:27:44.352Z,11.10
2022-11-26T22:30:11.512Z,12.10
2022-11-26T22:32:38.274Z,12.40
2022-11-26T22:35:05.380Z,12.20
2022-11-26T22:37:32.126Z,12.17
2022-11-26T22:39:58.862Z,12.20
2022-11-26T22:42:25.564Z,10.43
2022-11-26T22:44:52.304Z,10.87
2022-11-26T22:47:19.103Z,10.30
2022-11-26T22:49:46.253Z,10.83
2022-11-26T22:52:13.218Z,11.97
2022-11-26T22:54:39.917Z,11.90
2022-11-26T22:57:07.051Z,13.77
2022-11-26T22:59:33.779Z,14.57
2022-11-26T23:02:00.912Z,14.47
2022-11-26T23:04:28.067Z,13.80
2022-11-26T23:06:54.820Z,16.97
2022-11-26T23:09:21.590Z,16.17
2022-11-26T23:11:48.314Z,19.70
2022-11-26T23:14:15.008Z,16.23
2022-11-26T23:16:43.159Z,18.33
2022-11-26T23:19:13.118Z,16.57
2022-11-26T23:21:42.726Z,20.87
2022-11-26T23:24:09.824Z,20.27
2022-11-26T23:26:38.454Z,19.77
2022-11-26T23:29:06.619Z,20.03
2022-11-26T23:31:36.114Z,21.33
2022-11-26T23:34:03.733Z,20.90
2022-11-26T23:36:31.354Z,18.67
2022-11-26T23:39:01.119Z,18.60
2022-11-26T23:41:28.487Z,21.57
2022-11-26T23:43:55.521Z,21.43
2022-11-26T23:46:25.267Z,18.93
2022-11-26T23:48:52.411Z,21.50
2022-11-26T23:51:22.499Z,19.50
2022-11-26T23:53:50.566Z,20.37
2022-11-26T23:56:23.822Z,17.67
2022-11-26T23:58:52.634Z,19.57
